Flight Track Log - Related Links

Times and Time Zones

All times are in EDT time to prevent confusion due to time zone crossing. See the N432WH flight status page for this flight to view local times or setup timezone preferences in your user account.

Time Position Orientation Groundspeed Altitude Reporting Facility
EDT Latitude Longitude Course Direction KTS MPH feet Rate Location/Type
Sun 07:40:30 PM 34.4906 -85.7706 336° Northwest 163 188 12,500  Level Memphis Center
Sun 07:41:17 PM 34.5289 -85.7911 336° Northwest 155 178 12,600  Climbing Atlanta Center
Sun 07:43:35 PM 34.6108 -85.8458 331° Northwest 161 185 12,500 -30 Descending Memphis Center
Sun 07:44:37 PM 34.6556 -85.8731 333° Northwest 162 186 12,500 48 Level Memphis Center
Sun 07:45:39 PM 34.6908 -85.8933 335° Northwest 155 178 12,600 48 Climbing Memphis Center
Sun 07:46:41 PM 34.7292 -85.9156 335° Northwest 152 175 12,600 -48 Level Memphis Center
Sun 07:47:43 PM 34.7692 -85.9378 335° Northwest 152 175 12,500 -49 Descending Memphis Center
Sun 07:48:44 PM 34.8181 -85.9642 336° Northwest 155 178 12,500  Level Memphis Center
Sun 07:49:46 PM 34.8583 -85.9872 335° Northwest 156 180 12,500  Level Memphis Center
Sun 07:50:48 PM 34.8978 -86.0094 335° Northwest 156 180 12,500  Level Memphis Center
Sun 07:51:50 PM 34.9378 -86.0306 337° Northwest 156 180 12,500 -48 Level Memphis Center
Sun 07:52:52 PM 34.9778 -86.0531 335° Northwest 156 180 12,400  Descending Memphis Center
Sun 07:53:53 PM 35.0156 -86.0747 335° Northwest 156 180 12,500 49 Climbing Memphis Center
Sun 07:54:55 PM 35.0558 -86.0950 338° Northwest 156 180 12,500  Level Memphis Center
Sun 07:55:57 PM 35.1069 -86.1233 336° Northwest 158 182 12,500  Level Memphis Center
Sun 07:56:58 PM 35.1481 -86.1450 337° Northwest 159 183 12,500  Level Memphis Center
Sun 07:58:00 PM 35.1892 -86.1692 334° Northwest 160 184 12,500 48 Level Memphis Center
Sun 07:59:02 PM 35.2300 -86.1933 334° Northwest 161 185 12,600 98 Climbing Memphis Center
Sun 08:00:03 PM 35.2719 -86.2183 334° Northwest 161 185 12,700 49 Climbing Memphis Center
Sun 08:01:05 PM 35.3158 -86.2381 340° North 164 189 12,700 48 Level Memphis Center
Sun 08:02:07 PM 35.3575 -86.2600 337° Northwest 163 188 12,800 49 Climbing Memphis Center
Sun 08:03:08 PM 35.3997 -86.2819 337° Northwest 163 188 12,800 49 Level Memphis Center
Sun 08:04:10 PM 35.4428 -86.3025 339° North 163 188 12,900 339 Climbing Memphis Center
Sun 08:05:12 PM 35.4900 -86.3256 338° Northwest 161 185 13,500 339 Climbing Memphis Center
Sun 08:06:14 PM 35.5283 -86.3433 339° North 151 174 13,600 49 Climbing Memphis Center
Sun 08:07:15 PM 35.5711 -86.3653 337° Northwest 158 182 13,600 -49 Level Memphis Center
Sun 08:08:17 PM 35.6139 -86.3911 334° Northwest 165 190 13,500 -97 Descending Memphis Center
Sun 08:09:19 PM 35.6581 -86.4153 336° Northwest 168 193 13,400  Descending Memphis Center
Sun 08:10:20 PM 35.7008 -86.4397 335° Northwest 168 193 13,500 98 Climbing Memphis Center
Sun 08:11:22 PM 35.7428 -86.4658 333° Northwest 168 193 13,600  Climbing Memphis Center
Sun 08:12:24 PM 35.7869 -86.4892 337° Northwest 168 193 13,500 -49 Descending Memphis Center
Sun 08:13:25 PM 35.8311 -86.5131 336° Northwest 169 194 13,500 49 Level Memphis Center
Sun 08:14:27 PM 35.8778 -86.5475 329° Northwest 169 194 13,600 48 Climbing Memphis Center
Sun 08:15:29 PM 35.9222 -86.5667 341° North 168 193 13,600 -48 Level Memphis Center
Sun 08:16:31 PM 35.9672 -86.5886 338° Northwest 169 194 13,500  Descending Memphis Center
Sun 08:17:32 PM 36.0119 -86.6094 339° North 170 196 13,600 49 Climbing Memphis Center
Sun 08:18:34 PM 36.0567 -86.6289 341° North 170 196 13,600  Level Memphis Center
Sun 08:19:36 PM 36.1011 -86.6481 341° North 169 194 13,600 -48 Level Memphis Center
Sun 08:20:38 PM 36.1433 -86.6731 334° Northwest 169 194 13,500  Descending Memphis Center
Sun 08:21:39 PM 36.1856 -86.6981 334° Northwest 169 194 13,600 49 Climbing Memphis Center
Sun 08:22:41 PM 36.2289 -86.7214 337° Northwest 168 193 13,600 -97 Level Memphis Center
Sun 08:23:43 PM 36.2792 -86.7511 335° Northwest 169 194 13,400 -293 Descending Memphis Center
Sun 08:24:44 PM 36.3233 -86.7781 334° Northwest 172 198 13,000 -537 Descending Memphis Center
Sun 08:25:46 PM 36.3686 -86.8033 336° Northwest 177 204 12,300 -690 Descending Memphis Center
Sun 08:26:11 PM 36.3903 -86.8172 333° Northwest 174 200 12,000 -655 Descending Memphis Center
Sun 08:26:41 PM 36.4089 -86.8278 335° Northwest 168 193 11,700 -725 Descending Memphis Center
Sun 08:27:42 PM 36.4525 -86.8542 334° Northwest 163 188 10,900 -694 Descending Memphis Center
Sun 08:28:42 PM 36.4919 -86.8778 334° Northwest 162 186 10,300 -645 Descending Memphis Center
Sun 08:29:43 PM 36.5333 -86.9042 333° Northwest 163 188 9,600 -639 Descending Memphis Center
Sun 08:30:44 PM 36.5747 -86.9256 337° Northwest 163 188 9,000 -592 Descending Memphis Center
Sun 08:30:54 PM 36.5819 -86.9289 340° North 164 189 8,900 -600 Descending Memphis Center
Sun 08:31:44 PM 36.6164 -86.9494 334° Northwest 160 184 8,400 -677 Descending Memphis Center
Sun 08:31:56 PM 36.6225 -86.9522 340° North 163 188 8,200 -689 Descending Memphis Center
Sun 08:32:45 PM 36.6558 -86.9708 336° Northwest 159 183 7,700 -716 Descending Memphis Center
Sun 08:33:45 PM 36.6972 -86.9947 335° Northwest 162 186 6,900 -730 Descending Memphis Center
Sun 08:33:59 PM 36.7044 -86.9997 331° Northwest 162 186 6,800 -689 Descending Memphis Center
Sun 08:34:46 PM 36.7367 -87.0161 338° Northwest 162 186 6,200 -689 Descending Memphis Center
Sun 08:35:00 PM 36.7461 -87.0197 343° North 162 186 6,100 -787 Descending Memphis Center
Sun 08:35:47 PM 36.7803 -87.0322 344° North 152 175 5,400 -774 Descending Memphis Center
Sun 08:36:02 PM 36.7869 -87.0364 333° Northwest 157 181 5,300 -600 Descending Memphis Center
Sun 08:36:47 PM 36.8175 -87.0589 329° Northwest 150 173 4,800 -590 Descending Memphis Center
Sun 08:37:03 PM 36.8242 -87.0608 347° North 154 177 4,700 -769 Descending Memphis Center
Sun 08:38:05 PM 36.8600 -87.0867 330° Northwest 153 176 3,800 -743 Descending Memphis Center
Sun 08:38:48 PM 36.8922 -87.1067 334° Northwest 148 170 3,400 -492 Descending Memphis Center
Sun 08:39:06 PM 36.8972 -87.1106 328° Northwest 152 175 3,300 -197 Descending Memphis Center
Sun 08:39:49 PM 36.9275 -87.1308 332° Northwest 148 170 3,200 -194 Descending Memphis Center
Sun 08:40:08 PM 36.9339 -87.1347 334° Northwest 151 174 3,100 -98 Descending Memphis Center
Sun 08:40:50 PM 36.9647 -87.1522 336° Northwest 147 169 3,100  Level Memphis Center
Sun 08:41:09 PM 36.9764 -87.1606 330° Northwest 150 173 3,100  Level Memphis Center
Sun 08:41:50 PM 37.0019 -87.1764 334° Northwest 142 163 3,100  Level Memphis Center
Sun 08:42:11 PM 37.0128 -87.1828 335° Northwest 146 168 3,100  Level Memphis Center
Sun 08:42:51 PM 37.0372 -87.1978 334° Northwest 144 166 3,100  Level Memphis Center
Sun 08:43:12 PM 37.0492 -87.2047 335° Northwest 146 168 3,100  Level Memphis Center
Sun 08:43:51 PM 37.0767 -87.2142 345° North 147 169 3,100  Level Memphis Center
Sun 08:44:14 PM 37.0875 -87.2203 336° Northwest 146 168 3,100 98 Level Memphis Center
Sun 08:44:52 PM 37.1097 -87.2356 331° Northwest 142 163 3,200  Climbing Memphis Center
Sun 08:45:15 PM 37.1231 -87.2425 337° Northwest 145 167 3,100  Descending Memphis Center
Sun 08:45:53 PM 37.1469 -87.2597 330° Northwest 142 163 3,200  Climbing Memphis Center
Sun 08:46:17 PM 37.1575 -87.2683 327° Northwest 144 166 3,100 -71 Descending Memphis Center
Sun 08:47:18 PM 37.1947 -87.2917 333° Northwest 144 166 3,100 -146 Level Memphis Center
Sun 08:48:20 PM 37.2289 -87.3164 330° Northwest 144 166 2,800 -585 Descending Memphis Center
Sun 08:49:21 PM 37.2653 -87.3425 330° Northwest 145 167 1,900 -885 Descending Memphis Center
Sun 08:51:00 PM 37.3318 -87.3773 345° North  Level FlightAware Approximate
Sun 08:58:00 PM 37.3500 -87.3833 345° North  Level FlightAware Approximate
Sun 08:59:00 PM 37.3559 -87.3982 270° West  Level Estimated
Sun 09:00:00 PM 37.3559 -87.3982 345° North  Level Estimated
Sun 09:01:00 PM 37.3559 -87.3982 117° Southeast  Level Estimated
Sun 09:02:00 PM 37.3559 -87.3982 345° North  Level Estimated

Login

Don't have an account? Register now (free) for customized features, flight alerts, and more!